Anning, China
Current Conditions -  °F | °C
As of 5:00 PM on Sunday 26 Oct 2014 (Local Time) from ZPPP Reporting Station
Few Clouds Few Clouds  
Wind Chill: 68°   Ceiling: Unl
Heat Index: 68°   Visibility: 6mi
Dew Point: 43°   Wind: 11mph
Humidity: 40%   Direction: 250°WSW
Pressure: 30.27"   Gusts: NA
Location:  24.9°N, 102.49°E
Report Text: ZPPP 260900Z 25005MPS 9999 FEW026 20/06 Q1025 NOSIG
Loading
Personal Weather Stations






























Interactive Weather Map
Tropical Storm Tracking
New forecast layout! Learn more

10-Day Weather Forecast

Advertisements
Track Severe Weather on mobile